createdAt,value
2022-07-26T00:00:13.125Z,6.75
2022-07-26T00:02:47.551Z,6.90
2022-07-26T00:05:16.261Z,6.70
2022-07-26T00:07:43.566Z,7.43
2022-07-26T00:10:13.466Z,7.13
2022-07-26T00:12:40.304Z,6.57
2022-07-26T00:15:09.514Z,7.20
2022-07-26T00:17:36.152Z,6.53
2022-07-26T00:20:03.359Z,6.90
2022-07-26T00:22:35.849Z,6.90
2022-07-26T00:25:05.873Z,6.78
2022-07-26T00:27:33.028Z,6.45
2022-07-26T00:29:59.629Z,6.90
2022-07-26T00:32:26.205Z,7.03
2022-07-26T00:34:55.175Z,6.50
2022-07-26T00:37:21.723Z,6.50
2022-07-26T00:39:49.203Z,6.63
2022-07-26T00:42:16.340Z,6.78
2022-07-26T00:44:45.855Z,6.15
2022-07-26T00:47:13.703Z,5.45
2022-07-26T00:49:43.398Z,5.82
2022-07-26T00:52:11.044Z,6.13
2022-07-26T00:54:39.696Z,6.50
2022-07-26T00:57:06.778Z,6.28
2022-07-26T00:59:33.539Z,7.03
2022-07-26T01:02:03.732Z,7.15
2022-07-26T01:04:30.384Z,6.80
2022-07-26T01:06:57.078Z,5.68
2022-07-26T01:09:25.900Z,4.90
2022-07-26T01:11:54.645Z,4.53
2022-07-26T01:14:22.732Z,4.30
2022-07-26T01:16:49.578Z,4.50
2022-07-26T01:19:16.981Z,4.45
2022-07-26T01:21:43.706Z,4.68
2022-07-26T01:24:10.710Z,4.57
2022-07-26T01:26:37.838Z,4.80
2022-07-26T01:29:05.104Z,4.90
2022-07-26T01:31:31.845Z,5.32
2022-07-26T01:33:58.519Z,5.45
2022-07-26T01:36:27.565Z,5.30
2022-07-26T01:38:54.433Z,5.63
2022-07-26T01:41:31.622Z,5.63
2022-07-26T01:44:05.973Z,4.88
2022-07-26T01:46:33.031Z,4.72
2022-07-26T01:49:01.708Z,5.28
2022-07-26T01:51:28.470Z,5.43
2022-07-26T01:53:54.941Z,5.20
2022-07-26T01:56:21.469Z,5.43
2022-07-26T01:58:47.962Z,5.20
2022-07-26T02:01:14.474Z,5.32
2022-07-26T02:03:40.972Z,5.25
2022-07-26T02:06:07.799Z,5.10
2022-07-26T02:08:34.332Z,5.30
2022-07-26T02:11:03.602Z,5.47
2022-07-26T02:13:41.551Z,5.90
2022-07-26T02:16:13.378Z,5.65
2022-07-26T02:18:42.993Z,6.00
2022-07-26T02:21:09.881Z,5.32
2022-07-26T02:23:37.252Z,5.30
2022-07-26T02:26:08.567Z,5.57
2022-07-26T02:28:37.111Z,5.80
2022-07-26T02:31:03.717Z,5.47
2022-07-26T02:33:30.427Z,5.43
2022-07-26T02:35:56.907Z,5.85
2022-07-26T02:38:25.164Z,5.20
2022-07-26T02:40:52.724Z,5.30
2022-07-26T02:43:19.991Z,5.32
2022-07-26T02:46:01.301Z,5.20
2022-07-26T02:48:28.721Z,5.55
2022-07-26T02:50:55.426Z,5.40
2022-07-26T02:53:21.951Z,5.72
2022-07-26T02:55:48.417Z,5.63
2022-07-26T02:58:15.014Z,6.30
2022-07-26T03:00:41.501Z,6.00
2022-07-26T03:03:14.061Z,5.97
2022-07-26T03:05:40.758Z,5.45
2022-07-26T03:08:07.440Z,5.90
2022-07-26T03:10:33.913Z,5.45
2022-07-26T03:13:00.381Z,5.95
2022-07-26T03:15:26.838Z,4.75
2022-07-26T03:17:56.135Z,5.53
2022-07-26T03:20:22.777Z,5.53
2022-07-26T03:22:49.261Z,6.00
2022-07-26T03:25:15.829Z,5.93
2022-07-26T03:27:42.293Z,5.90
2022-07-26T03:30:09.484Z,5.80
2022-07-26T03:32:36.326Z,5.60
2022-07-26T03:35:02.888Z,6.05
2022-07-26T03:37:45.131Z,5.93
2022-07-26T03:40:14.681Z,6.40
2022-07-26T03:42:41.191Z,5.88
2022-07-26T03:45:09.078Z,6.07
2022-07-26T03:47:37.113Z,5.90
2022-07-26T03:50:05.375Z,5.93
2022-07-26T03:52:31.898Z,6.72
2022-07-26T03:55:01.085Z,5.35
2022-07-26T03:57:28.328Z,5.55
2022-07-26T03:59:55.199Z,5.78
2022-07-26T04:02:21.818Z,5.80
2022-07-26T04:04:48.341Z,5.38
2022-07-26T04:07:15.951Z,5.60
2022-07-26T04:09:45.316Z,5.93
2022-07-26T04:12:11.797Z,5.80
2022-07-26T04:14:38.588Z,5.05
2022-07-26T04:17:05.122Z,5.80
2022-07-26T04:19:31.649Z,5.70
2022-07-26T04:21:58.784Z,5.55
2022-07-26T04:24:25.705Z,5.25
2022-07-26T04:26:52.501Z,5.75
2022-07-26T04:29:21.104Z,5.30
2022-07-26T04:31:47.588Z,5.43
2022-07-26T04:34:14.089Z,5.72
2022-07-26T04:36:40.591Z,5.85
2022-07-26T04:39:07.106Z,5.07
2022-07-26T04:41:33.650Z,5.40
2022-07-26T04:44:00.206Z,5.63
2022-07-26T04:46:26.699Z,5.38
2022-07-26T04:48:58.269Z,5.45
2022-07-26T04:51:25.676Z,5.80
2022-07-26T04:53:52.128Z,5.70
2022-07-26T04:56:18.633Z,5.75
2022-07-26T04:58:45.073Z,5.32
2022-07-26T05:01:11.605Z,5.50
2022-07-26T05:03:38.947Z,5.40
2022-07-26T05:06:05.628Z,4.95
2022-07-26T05:08:32.173Z,5.88
2022-07-26T05:11:04.973Z,5.75
2022-07-26T05:13:32.366Z,5.40
2022-07-26T05:16:00.060Z,4.90
2022-07-26T05:18:45.737Z,4.80
2022-07-26T05:21:19.780Z,4.38
2022-07-26T05:23:48.899Z,4.82
2022-07-26T05:26:17.393Z,4.78
2022-07-26T05:28:45.662Z,4.00
2022-07-26T05:31:14.929Z,3.40
2022-07-26T05:34:06.131Z,3.80
2022-07-26T05:36:49.934Z,4.28
2022-07-26T05:39:28.715Z,4.18
2022-07-26T05:41:56.417Z,4.25
2022-07-26T05:44:25.561Z,4.85
2022-07-26T05:46:53.121Z,4.13
2022-07-26T05:49:19.668Z,4.47
2022-07-26T05:51:46.171Z,4.18
2022-07-26T05:54:13.174Z,4.72
2022-07-26T05:56:39.708Z,4.40
2022-07-26T05:59:08.616Z,4.70
2022-07-26T06:01:35.884Z,4.50
2022-07-26T06:04:02.653Z,3.95
2022-07-26T06:06:29.386Z,4.15
2022-07-26T06:08:55.871Z,3.75
2022-07-26T06:11:22.642Z,3.60
2022-07-26T06:13:52.423Z,3.67
2022-07-26T06:16:21.482Z,3.55
2022-07-26T06:18:50.536Z,4.22
2022-07-26T06:21:17.045Z,3.83
2022-07-26T06:23:43.533Z,3.50
2022-07-26T06:26:09.995Z,3.85
2022-07-26T06:28:38.468Z,3.75
2022-07-26T06:31:05.750Z,3.85
2022-07-26T06:33:32.305Z,3.78
2022-07-26T06:35:58.866Z,3.83
2022-07-26T06:38:27.830Z,4.00
2022-07-26T06:40:57.085Z,3.53
2022-07-26T06:43:23.632Z,3.63
2022-07-26T06:45:50.477Z,3.10
2022-07-26T06:48:17.225Z,3.40
2022-07-26T06:50:44.209Z,3.33
2022-07-26T06:53:13.245Z,3.33
2022-07-26T06:55:42.950Z,2.97
2022-07-26T06:58:09.491Z,3.47
2022-07-26T07:00:36.000Z,3.10
2022-07-26T07:03:02.524Z,3.45
2022-07-26T07:05:33.789Z,2.75
2022-07-26T07:08:00.285Z,3.40
2022-07-26T07:10:26.974Z,2.85
2022-07-26T07:12:53.424Z,3.05
2022-07-26T07:15:20.016Z,3.03
2022-07-26T07:17:46.506Z,3.10
2022-07-26T07:20:15.254Z,3.70
2022-07-26T07:22:41.746Z,3.03
2022-07-26T07:25:08.511Z,3.08
2022-07-26T07:27:35.055Z,2.83
2022-07-26T07:30:02.058Z,3.00
2022-07-26T07:32:28.635Z,3.30
2022-07-26T07:34:55.218Z,3.13
2022-07-26T07:37:21.801Z,3.13
2022-07-26T07:39:51.474Z,3.20
2022-07-26T07:42:19.219Z,3.10
2022-07-26T07:44:49.963Z,3.13
2022-07-26T07:47:16.619Z,2.97
2022-07-26T07:49:43.318Z,3.25
2022-07-26T07:52:10.033Z,3.72
2022-07-26T07:54:36.634Z,3.22
2022-07-26T07:57:03.176Z,3.45
2022-07-26T07:59:32.841Z,3.20
2022-07-26T08:02:06.286Z,3.22
2022-07-26T08:04:35.067Z,3.05
2022-07-26T08:07:06.407Z,3.13
2022-07-26T08:09:33.870Z,3.05
2022-07-26T08:12:00.662Z,2.80
2022-07-26T08:14:29.798Z,2.90
2022-07-26T08:16:56.391Z,2.45
2022-07-26T08:19:26.001Z,3.00
2022-07-26T08:21:55.817Z,3.00
2022-07-26T08:24:23.712Z,2.75
2022-07-26T08:26:54.042Z,2.70
2022-07-26T08:29:20.649Z,2.97
2022-07-26T08:31:47.205Z,3.05
2022-07-26T08:34:13.762Z,2.90
2022-07-26T08:36:54.832Z,2.55
2022-07-26T08:39:29.157Z,2.70
2022-07-26T08:41:55.760Z,2.67
2022-07-26T08:44:22.264Z,2.70
2022-07-26T08:46:48.779Z,2.50
2022-07-26T08:49:17.607Z,2.63
2022-07-26T08:51:44.544Z,2.47
2022-07-26T08:54:15.527Z,3.00
2022-07-26T08:56:52.341Z,2.67
2022-07-26T08:59:24.373Z,2.90
2022-07-26T09:02:04.038Z,2.80
2022-07-26T09:04:37.413Z,2.70
2022-07-26T09:07:19.313Z,2.72
2022-07-26T09:09:54.839Z,2.53
2022-07-26T09:12:22.623Z,3.17
2022-07-26T09:14:49.808Z,2.80
2022-07-26T09:17:18.478Z,2.42
2022-07-26T09:20:04.939Z,2.90
2022-07-26T09:22:36.270Z,2.92
2022-07-26T09:25:03.139Z,2.75
2022-07-26T09:27:41.032Z,2.72
2022-07-26T09:30:08.728Z,2.90
2022-07-26T09:32:36.803Z,2.75
2022-07-26T09:35:37.061Z,3.15
2022-07-26T09:37:59.674Z,3.00
2022-07-26T09:40:35.161Z,2.75
2022-07-26T09:43:05.007Z,3.17
2022-07-26T09:45:36.297Z,3.92
2022-07-26T09:48:04.468Z,3.20
2022-07-26T09:50:33.999Z,3.20
2022-07-26T09:53:11.536Z,3.90
2022-07-26T09:55:45.018Z,3.35
2022-07-26T09:58:14.018Z,3.78
2022-07-26T10:00:41.048Z,3.17
2022-07-26T10:03:07.639Z,2.80
2022-07-26T10:05:34.803Z,3.10
2022-07-26T10:08:03.874Z,2.85
2022-07-26T10:10:47.911Z,2.90
2022-07-26T10:13:14.550Z,2.70
2022-07-26T10:15:48.460Z,2.90
2022-07-26T10:18:36.928Z,2.83
2022-07-26T10:21:26.460Z,2.90
2022-07-26T10:23:59.872Z,2.60
2022-07-26T10:26:32.426Z,3.05
2022-07-26T10:29:17.232Z,8.98
2022-07-26T10:31:44.709Z,3.50
2022-07-26T10:34:38.691Z,5.25
2022-07-26T10:37:07.742Z,5.07
2022-07-26T10:39:36.996Z,4.05
2022-07-26T10:42:05.892Z,3.10
2022-07-26T10:44:41.911Z,2.63
2022-07-26T10:47:08.352Z,2.97
2022-07-26T10:49:58.159Z,2.85
2022-07-26T10:52:29.933Z,3.20
2022-07-26T10:54:59.453Z,3.10
2022-07-26T10:57:43.627Z,3.00
2022-07-26T11:00:13.725Z,3.35
2022-07-26T11:02:43.699Z,3.22
2022-07-26T11:05:16.498Z,2.83
2022-07-26T11:07:59.836Z,3.63
2022-07-26T11:10:34.468Z,3.70
2022-07-26T11:13:10.531Z,3.30
2022-07-26T11:15:46.974Z,3.10
2022-07-26T11:18:25.013Z,3.03
2022-07-26T11:20:55.700Z,3.35
2022-07-26T11:23:23.119Z,3.38
2022-07-26T11:26:02.270Z,3.10
2022-07-26T11:28:29.127Z,3.60
2022-07-26T11:31:00.388Z,3.08
2022-07-26T11:33:41.457Z,3.03
2022-07-26T11:36:08.802Z,2.90
2022-07-26T11:38:55.029Z,2.65
2022-07-26T11:41:34.202Z,2.80
2022-07-26T11:44:04.819Z,2.92
2022-07-26T11:46:37.667Z,2.70
2022-07-26T11:49:11.973Z,2.90
2022-07-26T11:51:38.489Z,2.90
2022-07-26T11:54:05.148Z,2.90
2022-07-26T11:56:32.529Z,2.70
2022-07-26T11:58:59.196Z,3.38
2022-07-26T12:01:26.695Z,3.30
2022-07-26T12:03:54.841Z,3.72
2022-07-26T12:06:24.659Z,3.47
2022-07-26T12:08:58.423Z,3.60
2022-07-26T12:11:37.933Z,3.45
2022-07-26T12:14:04.729Z,3.20
2022-07-26T12:16:55.463Z,3.13
2022-07-26T12:19:24.577Z,2.53
2022-07-26T12:21:52.395Z,2.28
2022-07-26T12:24:46.295Z,2.60
2022-07-26T12:27:25.068Z,2.13
2022-07-26T12:30:15.923Z,2.42
2022-07-26T12:32:44.971Z,2.70
2022-07-26T12:35:14.473Z,2.67
2022-07-26T12:37:47.016Z,2.72
2022-07-26T12:40:16.138Z,2.70
2022-07-26T12:42:49.596Z,3.35
2022-07-26T12:45:18.713Z,2.50
2022-07-26T12:47:48.187Z,2.33
2022-07-26T12:50:16.866Z,2.70
2022-07-26T12:52:43.811Z,1.98
2022-07-26T12:55:14.707Z,2.40
2022-07-26T12:57:47.439Z,2.53
2022-07-26T13:00:16.343Z,2.10
2022-07-26T13:02:43.801Z,2.30
2022-07-26T13:05:11.319Z,2.20
2022-07-26T13:07:38.677Z,2.13
2022-07-26T13:10:31.985Z,2.10
2022-07-26T13:12:56.365Z,2.13
2022-07-26T13:15:22.923Z,1.88
2022-07-26T13:17:51.454Z,1.92
2022-07-26T13:20:20.500Z,1.77
2022-07-26T13:22:46.973Z,1.77
2022-07-26T13:25:14.246Z,2.00
2022-07-26T13:27:44.767Z,1.77
2022-07-26T13:30:12.325Z,1.70
2022-07-26T13:32:38.838Z,1.45
2022-07-26T13:35:05.663Z,1.50
2022-07-26T13:37:32.151Z,1.80
2022-07-26T13:40:01.194Z,1.60
2022-07-26T13:42:28.227Z,1.88
2022-07-26T13:44:54.728Z,1.45
2022-07-26T13:47:21.214Z,1.45
2022-07-26T13:49:47.780Z,1.50
2022-07-26T13:52:16.790Z,1.50
2022-07-26T13:54:43.614Z,1.50
2022-07-26T13:57:10.225Z,1.75
2022-07-26T13:59:36.694Z,1.50
2022-07-26T14:02:04.760Z,1.60
2022-07-26T14:04:31.407Z,1.58
2022-07-26T14:06:57.989Z,1.50
2022-07-26T14:09:24.809Z,1.40
2022-07-26T14:11:51.476Z,1.88
2022-07-26T14:14:18.005Z,1.88
2022-07-26T14:16:48.046Z,1.70
2022-07-26T14:19:16.022Z,1.70
2022-07-26T14:21:48.936Z,1.77
2022-07-26T14:26:56.859Z,1.48
2022-07-26T14:29:26.226Z,1.60
2022-07-26T14:31:52.937Z,1.70
2022-07-26T14:34:21.818Z,1.80
2022-07-26T14:36:48.323Z,1.77
2022-07-26T14:39:15.176Z,1.80
2022-07-26T14:41:41.694Z,1.98
2022-07-26T14:44:08.548Z,1.83
2022-07-26T14:46:35.485Z,1.98
2022-07-26T14:49:02.004Z,1.80
2022-07-26T14:51:28.541Z,1.90
2022-07-26T14:53:55.073Z,1.80
2022-07-26T14:56:21.952Z,1.95
2022-07-26T14:58:48.427Z,1.80
2022-07-26T15:01:15.015Z,1.92
2022-07-26T15:03:43.790Z,1.73
2022-07-26T15:06:10.329Z,1.80
2022-07-26T15:08:36.845Z,1.83
2022-07-26T15:11:05.454Z,1.75
2022-07-26T15:13:34.393Z,1.33
2022-07-26T15:16:03.585Z,1.60
2022-07-26T15:18:30.457Z,1.90
2022-07-26T15:20:57.900Z,1.88
2022-07-26T15:23:25.076Z,1.77
2022-07-26T15:25:51.798Z,1.63
2022-07-26T15:28:18.344Z,1.73
2022-07-26T15:30:44.928Z,1.67
2022-07-26T15:33:11.657Z,1.80
2022-07-26T15:35:40.511Z,1.75
2022-07-26T15:38:07.553Z,1.83
2022-07-26T15:40:34.140Z,1.80
2022-07-26T15:43:00.656Z,1.70
2022-07-26T15:45:28.090Z,1.60
2022-07-26T15:48:09.438Z,1.80
2022-07-26T15:50:42.588Z,1.40
2022-07-26T15:53:09.497Z,1.60
2022-07-26T15:55:36.363Z,1.40
2022-07-26T15:58:02.903Z,1.50
2022-07-26T16:00:34.203Z,1.65
2022-07-26T16:03:03.087Z,1.60
2022-07-26T16:05:29.684Z,1.90
2022-07-26T16:07:56.196Z,1.52
2022-07-26T16:10:22.729Z,1.70
2022-07-26T16:12:49.327Z,1.42
2022-07-26T16:15:15.859Z,1.45
2022-07-26T16:17:44.602Z,1.50
2022-07-26T16:20:11.256Z,1.50
2022-07-26T16:22:41.166Z,1.40
2022-07-26T16:25:13.480Z,1.40
2022-07-26T16:27:41.652Z,1.63
2022-07-26T16:30:08.919Z,1.70
2022-07-26T16:32:35.454Z,1.67
2022-07-26T16:35:02.042Z,1.83
2022-07-26T16:37:31.106Z,2.00
2022-07-26T16:39:57.711Z,1.70
2022-07-26T16:42:29.207Z,2.00
2022-07-26T16:44:55.761Z,1.85
2022-07-26T16:47:24.793Z,2.00
2022-07-26T16:49:51.696Z,1.70
2022-07-26T16:52:18.259Z,1.55
2022-07-26T16:54:47.172Z,1.50
2022-07-26T16:57:15.900Z,1.67
2022-07-26T16:59:42.393Z,1.65
2022-07-26T17:02:09.065Z,1.80
2022-07-26T17:04:37.283Z,1.80
2022-07-26T17:09:50.547Z,1.83
2022-07-26T17:12:21.903Z,1.60
2022-07-26T17:14:48.473Z,1.73
2022-07-26T17:17:14.975Z,1.63
2022-07-26T17:19:41.662Z,1.63
2022-07-26T17:22:08.167Z,1.65
2022-07-26T17:24:34.645Z,1.75
2022-07-26T17:27:01.269Z,1.48
2022-07-26T17:29:30.168Z,1.50
2022-07-26T17:31:59.102Z,1.55
2022-07-26T17:34:28.024Z,1.55
2022-07-26T17:36:59.058Z,1.55
2022-07-26T17:39:51.703Z,1.70
2022-07-26T17:42:22.161Z,1.70
2022-07-26T17:44:50.115Z,1.73
2022-07-26T17:47:27.842Z,1.42
2022-07-26T17:49:55.815Z,1.65
2022-07-26T17:52:23.522Z,1.50
2022-07-26T17:54:53.810Z,1.40
2022-07-26T17:57:20.388Z,1.42
2022-07-26T17:59:46.978Z,1.60
2022-07-26T18:02:18.296Z,2.10
2022-07-26T18:04:47.465Z,1.83
2022-07-26T18:07:14.444Z,1.58
2022-07-26T18:09:41.235Z,1.65
2022-07-26T18:12:10.264Z,1.70
2022-07-26T18:14:39.997Z,1.70
2022-07-26T18:17:09.060Z,1.70
2022-07-26T18:19:38.023Z,1.60
2022-07-26T18:22:06.322Z,1.90
2022-07-26T18:24:33.076Z,1.88
2022-07-26T18:26:59.681Z,1.83
2022-07-26T18:29:26.226Z,1.50
2022-07-26T18:31:58.605Z,1.80
2022-07-26T18:34:27.951Z,1.60
2022-07-26T18:36:54.639Z,1.75
2022-07-26T18:39:23.406Z,1.85
2022-07-26T18:41:50.062Z,1.90
2022-07-26T18:44:16.697Z,1.70
2022-07-26T18:46:45.649Z,1.77
2022-07-26T18:49:20.170Z,1.90
2022-07-26T18:51:48.773Z,1.42
2022-07-26T18:54:18.858Z,1.52
2022-07-26T18:56:45.467Z,1.50
2022-07-26T18:59:12.629Z,1.75
2022-07-26T19:01:39.604Z,1.63
2022-07-26T19:04:07.313Z,1.70
2022-07-26T19:06:39.937Z,1.80
2022-07-26T19:09:06.685Z,1.77
2022-07-26T19:11:33.337Z,1.45
2022-07-26T19:14:04.324Z,1.77
2022-07-26T19:16:33.386Z,1.63
2022-07-26T19:19:02.612Z,1.80
2022-07-26T19:21:31.998Z,1.60
2022-07-26T19:24:01.102Z,1.70
2022-07-26T19:26:30.091Z,1.75
2022-07-26T19:28:56.997Z,2.08
2022-07-26T19:31:23.982Z,2.00
2022-07-26T19:33:52.921Z,2.22
2022-07-26T19:36:26.089Z,2.30
2022-07-26T19:41:23.876Z,2.90
2022-07-26T19:43:50.457Z,2.72
2022-07-26T19:46:17.113Z,3.30
2022-07-26T19:48:43.811Z,3.47
2022-07-26T19:51:10.435Z,3.42
2022-07-26T19:53:39.848Z,3.00
2022-07-26T19:56:07.419Z,3.20
2022-07-26T19:58:34.275Z,2.92
2022-07-26T20:01:01.085Z,3.17
2022-07-26T20:03:32.611Z,3.30
2022-07-26T20:06:01.676Z,3.20
2022-07-26T20:08:28.326Z,3.20
2022-07-26T20:10:55.079Z,3.53
2022-07-26T20:13:21.773Z,3.30
2022-07-26T20:15:50.616Z,3.38
2022-07-26T20:18:22.740Z,3.22
2022-07-26T20:20:49.319Z,3.03
2022-07-26T20:23:18.123Z,3.00
2022-07-26T20:25:46.771Z,2.45
2022-07-26T20:28:13.389Z,3.10
2022-07-26T20:30:40.287Z,3.22
2022-07-26T20:33:09.263Z,2.80
2022-07-26T20:35:36.062Z,3.05
2022-07-26T20:38:02.610Z,3.08
2022-07-26T20:40:30.002Z,2.47
2022-07-26T20:42:59.297Z,2.40
2022-07-26T20:45:25.925Z,2.72
2022-07-26T20:47:53.508Z,2.45
2022-07-26T20:50:26.035Z,2.65
2022-07-26T20:52:55.306Z,3.20
2022-07-26T20:55:22.883Z,2.90
2022-07-26T20:57:50.145Z,2.92
2022-07-26T21:00:17.453Z,2.95
2022-07-26T21:02:44.317Z,2.60
2022-07-26T21:05:13.432Z,3.10
2022-07-26T21:07:55.960Z,3.15
2022-07-26T21:10:26.522Z,3.13
2022-07-26T21:12:53.097Z,2.83
2022-07-26T21:15:24.376Z,2.97
2022-07-26T21:17:53.860Z,2.80
2022-07-26T21:20:20.509Z,2.92
2022-07-26T21:22:47.120Z,2.72
2022-07-26T21:25:15.889Z,3.28
2022-07-26T21:27:42.597Z,3.15
2022-07-26T21:30:09.688Z,3.00
2022-07-26T21:32:38.497Z,3.20
2022-07-26T21:35:05.686Z,3.00
2022-07-26T21:37:34.609Z,3.05
2022-07-26T21:40:01.285Z,2.75
2022-07-26T21:42:30.159Z,3.45
2022-07-26T21:44:56.692Z,3.60
2022-07-26T21:47:23.264Z,3.70
2022-07-26T21:49:52.073Z,3.83
2022-07-26T21:52:18.622Z,3.97
2022-07-26T21:54:47.524Z,3.50
2022-07-26T21:57:16.394Z,3.63
2022-07-26T21:59:42.893Z,3.83
2022-07-26T22:02:09.498Z,3.10
2022-07-26T22:04:36.142Z,3.63
2022-07-26T22:07:02.751Z,3.33
2022-07-26T22:09:34.554Z,3.17
2022-07-26T22:12:01.091Z,3.50
2022-07-26T22:14:27.653Z,3.65
2022-07-26T22:16:54.213Z,3.20
2022-07-26T22:19:20.775Z,3.28
2022-07-26T22:21:47.286Z,3.03
2022-07-26T22:24:16.290Z,3.28
2022-07-26T22:26:42.784Z,3.47
2022-07-26T22:29:10.169Z,3.20
2022-07-26T22:31:36.977Z,3.00
2022-07-26T22:34:03.560Z,3.85
2022-07-26T22:36:32.433Z,3.47
2022-07-26T22:38:58.886Z,3.80
2022-07-26T22:41:25.382Z,3.53
2022-07-26T22:43:54.332Z,3.80
2022-07-26T22:46:29.162Z,3.80
2022-07-26T22:48:56.187Z,4.88
2022-07-26T22:51:22.686Z,6.40
2022-07-26T22:53:49.185Z,7.15
2022-07-26T22:56:19.535Z,6.25
2022-07-26T22:58:48.832Z,5.30
2022-07-26T23:01:16.556Z,5.05
2022-07-26T23:03:43.285Z,6.28
2022-07-26T23:06:26.596Z,6.00
2022-07-26T23:09:01.256Z,5.20
2022-07-26T23:11:27.853Z,4.15
2022-07-26T23:13:58.794Z,3.50
2022-07-26T23:16:28.800Z,3.30
2022-07-26T23:18:55.408Z,3.30
2022-07-26T23:21:21.921Z,3.45
2022-07-26T23:23:52.967Z,3.40
2022-07-26T23:26:19.485Z,3.58
2022-07-26T23:28:45.960Z,3.38
2022-07-26T23:31:14.722Z,3.40
2022-07-26T23:33:52.594Z,3.03
2022-07-26T23:36:25.939Z,3.08
2022-07-26T23:38:55.733Z,3.60
2022-07-26T23:41:22.694Z,3.10
2022-07-26T23:43:49.570Z,3.70
2022-07-26T23:46:16.555Z,3.30
2022-07-26T23:48:45.925Z,3.67
2022-07-26T23:51:17.356Z,3.70
2022-07-26T23:53:43.842Z,3.50
2022-07-26T23:56:10.353Z,4.35
2022-07-26T23:58:37.496Z,3.70
